Time;durP1;ratioP1;P1;durP2;ratioP2;P2;SDS_P1;SDS_P2;PMS_P1;PMS_P2;Temp;Humidity;BMP_temperature;BMP_pressure;BME280_temperature;BME280_humidity;BME280_pressure;Samples;Min_cycle;Max_cycle;Signal;HPM_P1;HPM_P2
2022/03/29 00:00:13;;;;;;;12.77;5.35;;;;;;;9.44;67.46;100240.34;5036568;28;20021;-80
2022/03/29 00:02:39;;;;;;;14.00;5.43;;;;;;;9.20;68.13;100245.19;5054309;28;20084;-80
2022/03/29 00:05:05;;;;;;;10.80;4.40;;;;;;;9.27;68.38;100239.88;5054479;28;20045;-80
2022/03/29 00:07:30;;;;;;;12.13;5.15;;;;;;;9.18;68.89;100235.69;5054446;28;20160;-80
2022/03/29 00:09:55;;;;;;;11.97;5.23;;;;;;;9.33;68.08;100231.81;5054691;28;20029;-80
2022/03/29 00:12:21;;;;;;;14.43;5.40;;;;;;;9.42;68.28;100228.94;5054699;28;20270;-80
2022/03/29 00:14:46;;;;;;;13.75;5.18;;;;;;;9.38;67.54;100221.28;5036873;28;20084;-81
2022/03/29 00:17:12;;;;;;;16.98;6.22;;;;;;;9.39;67.91;100228.31;5054350;28;20083;-81
2022/03/29 00:19:37;;;;;;;13.07;6.03;;;;;;;9.46;67.98;100214.91;5053915;28;20061;-80
2022/03/29 00:22:03;;;;;;;10.47;4.50;;;;;;;9.37;68.12;100219.63;5054741;28;20256;-80
2022/03/29 00:24:28;;;;;;;12.93;4.95;;;;;;;9.33;68.33;100212.16;5054335;28;20052;-80
2022/03/29 00:26:53;;;;;;;13.13;4.23;;;;;;;9.35;68.42;100205.53;5054353;28;20097;-80
2022/03/29 00:29:18;;;;;;;14.70;6.13;;;;;;;9.28;68.75;100210.09;5054742;28;20036;-80
2022/03/29 00:31:44;;;;;;;14.80;5.60;;;;;;;9.30;68.51;100210.72;5053860;28;20037;-80
2022/03/29 00:34:09;;;;;;;12.03;4.80;;;;;;;9.23;68.77;100201.78;5054237;28;20112;-81
2022/03/29 00:36:34;;;;;;;14.43;5.17;;;;;;;9.10;69.08;100203.59;5053595;28;20264;-81
2022/03/29 00:39:00;;;;;;;11.70;5.00;;;;;;;8.95;69.34;100207.28;5054082;28;20048;-81
2022/03/29 00:41:25;;;;;;;14.27;6.07;;;;;;;8.89;70.19;100201.84;5055263;28;20024;-80
2022/03/29 00:43:51;;;;;;;11.88;6.07;;;;;;;8.88;70.15;100205.56;5056911;28;20037;-81
2022/03/29 00:46:16;;;;;;;13.20;5.50;;;;;;;8.88;70.26;100197.50;5059126;28;20052;-82
2022/03/29 00:48:42;;;;;;;14.02;5.65;;;;;;;8.95;69.59;100193.84;5060345;28;20148;-82
2022/03/29 00:51:07;;;;;;;16.13;5.90;;;;;;;9.05;69.70;100201.50;5060112;28;20468;-81
2022/03/29 00:53:33;;;;;;;12.48;5.25;;;;;;;9.01;69.65;100197.56;5043120;28;20033;-81
2022/03/29 00:55:59;;;;;;;16.40;6.22;;;;;;;8.93;69.43;100206.63;5067403;28;20040;-80
2022/03/29 00:58:25;;;;;;;14.75;6.10;;;;;;;8.80;70.07;100194.97;5060452;28;20120;-80
2022/03/29 01:00:54;;;;;;;14.55;6.10;;;;;;;8.74;70.59;100193.94;5057819;28;20382;-80
2022/03/29 01:03:20;;;;;;;14.50;6.18;;;;;;;8.69;70.74;100199.06;5056941;28;20040;-81
2022/03/29 01:05:46;;;;;;;13.10;5.53;;;;;;;8.66;70.69;100194.91;5056853;28;20053;-81
2022/03/29 01:08:11;;;;;;;13.98;5.20;;;;;;;8.74;70.72;100199.31;5056617;28;20094;-81
2022/03/29 01:10:37;;;;;;;14.00;5.57;;;;;;;8.77;70.94;100195.41;5056761;28;20097;-81
2022/03/29 01:13:05;;;;;;;17.38;5.93;;;;;;;8.81;70.37;100183.19;5057568;28;20032;-82
2022/03/29 01:15:35;;;;;;;15.82;6.13;;;;;;;8.66;71.05;100186.84;5056594;28;20478;-81
2022/03/29 01:18:02;;;;;;;14.13;6.25;;;;;;;8.63;71.32;100186.41;5038828;28;20053;-80
2022/03/29 01:20:28;;;;;;;;;;;;;;;8.75;70.87;100186.69;5057370;28;20033;-81
2022/03/29 01:22:55;;;;;;;16.47;6.17;;;;;;;8.81;70.54;100177.81;5056816;28;19916;-81
2022/03/29 01:25:24;;;;;;;19.17;6.00;;;;;;;8.72;70.97;100185.25;5038781;28;20029;-80
2022/03/29 01:27:53;;;;;;;16.05;6.10;;;;;;;8.60;71.76;100176.06;5056547;28;20033;-80
2022/03/29 01:30:21;;;;;;;15.95;5.95;;;;;;;8.72;71.08;100174.50;5056332;28;20029;-80
2022/03/29 01:32:49;;;;;;;13.43;6.10;;;;;;;8.68;70.70;100171.38;5057228;28;20051;-80
2022/03/29 01:35:20;;;;;;;15.73;5.43;;;;;;;8.80;71.21;100168.94;5056203;28;20036;-80
2022/03/29 01:37:45;;;;;;;13.38;6.22;;;;;;;8.79;70.71;100164.59;5056634;28;20475;-80
2022/03/29 01:40:13;;;;;;;14.85;6.50;;;;;;;8.53;71.70;100165.31;5056812;28;20035;-81
2022/03/29 01:42:43;;;;;;;16.02;5.88;;;;;;;8.74;70.74;100163.56;5056091;28;20395;-80
2022/03/29 01:45:09;;;;;;;14.43;5.25;;;;;;;8.57;71.96;100165.75;5056520;28;20037;-80
2022/03/29 01:47:35;;;;;;;13.18;4.80;;;;;;;8.75;71.34;100159.84;5055930;28;20391;-80
2022/03/29 01:50:00;;;;;;;14.45;5.38;;;;;;;8.62;71.86;100149.84;5056235;28;20033;-81
2022/03/29 01:52:25;;;;;;;15.27;5.63;;;;;;;8.51;71.93;100151.25;5056270;28;20028;-80
2022/03/29 01:54:51;;;;;;;12.33;5.60;;;;;;;8.49;72.20;100147.91;5038196;28;20037;-80
2022/03/29 01:57:16;;;;;;;15.95;6.55;;;;;;;8.41;72.62;100147.25;5055907;28;20341;-80
2022/03/29 02:02:26;;;;;;;18.15;6.15;;;;;;;8.33;72.61;100146.38;5055892;28;20415;-80
2022/03/29 02:04:51;;;;;;;12.67;6.70;;;;;;;8.41;72.61;100147.25;5055264;28;20044;-81
2022/03/29 02:07:16;;;;;;;16.43;6.87;;;;;;;8.22;72.93;100149.59;5055775;28;20484;-82
2022/03/29 02:09:42;;;;;;;16.55;6.43;;;;;;;8.22;73.34;100146.06;5055387;28;20130;-79
2022/03/29 02:12:09;;;;;;;16.35;6.57;;;;;;;8.25;73.27;100142.97;5037967;28;20036;-80
2022/03/29 02:14:34;;;;;;;15.52;6.15;;;;;;;8.22;73.63;100149.59;5055464;28;20386;-81
2022/03/29 02:17:00;;;;;;;16.77;6.23;;;;;;;8.20;73.44;100146.28;5055842;28;20029;-81
2022/03/29 02:19:26;;;;;;;19.42;7.75;;;;;;;8.17;74.02;100143.16;5055572;28;20263;-82
2022/03/29 02:21:51;;;;;;;15.77;6.15;;;;;;;8.09;73.83;100138.75;5055294;28;20033;-81
2022/03/29 02:24:17;;;;;;;18.27;7.57;;;;;;;8.03;74.36;100134.19;5055524;28;20044;-82
2022/03/29 02:26:42;;;;;;;14.70;6.73;;;;;;;7.96;75.06;100134.13;5055532;28;20084;-82
2022/03/29 02:29:08;;;;;;;16.88;7.75;;;;;;;7.90;74.96;100134.88;5038368;28;20025;-81
2022/03/29 02:31:35;;;;;;;14.17;6.20;;;;;;;7.87;75.58;100132.63;5039734;28;20143;-82
2022/03/29 02:34:00;;;;;;;17.00;6.75;;;;;;;7.86;75.22;100128.28;5057958;28;20021;-81
2022/03/29 02:36:26;;;;;;;17.00;7.50;;;;;;;7.86;75.68;100127.44;5060511;28;20035;-81
2022/03/29 02:38:51;;;;;;;21.67;7.30;;;;;;;7.87;76.15;100124.56;5062850;28;20267;-80
2022/03/29 02:41:16;;;;;;;18.63;7.37;;;;;;;7.81;76.01;100125.34;5063176;28;20033;-82
2022/03/29 02:43:43;;;;;;;19.53;7.80;;;;;;;7.76;76.43;100121.56;5063644;28;20063;-81
2022/03/29 02:46:08;;;;;;;19.30;7.88;;;;;;;7.73;76.30;100112.06;5058418;28;20036;-81
2022/03/29 02:48:34;;;;;;;20.98;7.88;;;;;;;7.77;76.37;100107.97;5055075;28;20025;-80
2022/03/29 02:50:59;;;;;;;17.30;7.87;;;;;;;7.76;76.36;100103.63;5055293;28;20032;-80
2022/03/29 02:53:25;;;;;;;25.93;7.90;;;;;;;7.69;76.70;100097.41;5054748;28;20048;-81
2022/03/29 02:55:50;;;;;;;17.58;7.75;;;;;;;7.62;77.12;100094.66;5054714;28;20119;-80
2022/03/29 02:58:15;;;;;;;17.80;6.87;;;;;;;7.76;76.81;100090.22;5054962;28;20032;-81
2022/03/29 03:00:41;;;;;;;20.38;8.05;;;;;;;7.66;76.91;100090.56;5055051;28;20483;-82
2022/03/29 03:03:06;;;;;;;22.90;7.80;;;;;;;7.54;77.63;100085.91;5054976;28;20459;-81
2022/03/29 03:05:32;;;;;;;17.83;7.73;;;;;;;7.46;78.00;100089.56;5054695;28;20810;-81
2022/03/29 03:07:57;;;;;;;21.73;8.02;;;;;;;7.55;77.97;100083.03;5036789;28;20418;-81
2022/03/29 03:10:25;;;;;;;21.42;8.23;;;;;;;7.58;77.88;100076.47;5054774;28;20056;-80
2022/03/29 03:12:50;;;;;;;16.85;7.93;;;;;;;7.62;77.88;100083.94;5054568;28;20033;-81
2022/03/29 03:15:19;;;;;;;17.20;8.10;;;;;;;7.47;77.98;100080.50;5054211;28;20036;-81
2022/03/29 03:17:45;;;;;;;18.55;7.85;;;;;;;7.44;78.12;100080.88;5054594;28;20552;-80
2022/03/29 03:20:12;;;;;;;18.60;8.10;;;;;;;7.48;78.56;100081.34;5036795;28;20040;-80
2022/03/29 03:22:40;;;;;;;23.05;9.02;;;;;;;7.47;78.59;100082.34;5036662;28;20083;-80
2022/03/29 03:25:06;;;;;;;25.15;9.95;;;;;;;7.42;78.82;100072.19;5054159;28;20029;-79
2022/03/29 03:27:34;;;;;;;19.73;8.45;;;;;;;7.32;79.15;100069.88;5054488;28;20467;-79
2022/03/29 03:30:00;;;;;;;17.63;7.32;;;;;;;7.51;78.69;100079.09;5054389;28;20091;-80
2022/03/29 03:32:25;;;;;;;20.55;8.38;;;;;;;7.44;79.10;100075.53;5054435;28;20451;-79
2022/03/29 03:34:50;;;;;;;22.70;9.37;;;;;;;7.34;78.78;100074.19;5054509;28;20356;-80
2022/03/29 03:37:16;;;;;;;19.90;7.97;;;;;;;7.42;78.51;100071.38;5054476;28;20471;-80
2022/03/29 03:39:41;;;;;;;22.73;9.37;;;;;;;7.40;78.85;100068.06;5054238;28;20058;-81
2022/03/29 03:42:11;;;;;;;23.77;8.60;;;;;;;7.29;79.48;100072.91;5054447;28;20395;-80
2022/03/29 03:44:37;;;;;;;20.05;8.77;;;;;;;7.38;79.29;100064.72;5053817;28;20087;-80
2022/03/29 03:47:10;;;;;;;22.88;9.38;;;;;;;7.54;78.44;100059.94;5053863;28;20446;-83
2022/03/29 03:49:37;;;;;;;18.15;8.23;;;;;;;7.30;79.23;100061.19;5036163;28;20382;-81
2022/03/29 03:52:04;;;;;;;20.17;9.15;;;;;;;7.37;79.19;100057.72;5054798;28;20029;-80
2022/03/29 03:54:29;;;;;;;22.23;8.98;;;;;;;7.31;79.53;100057.47;5055044;28;20029;-81
2022/03/29 03:56:55;;;;;;;26.50;9.82;;;;;;;7.24;79.81;100050.41;5053756;28;20083;-79
2022/03/29 03:59:21;;;;;;;22.73;8.83;;;;;;;7.43;79.81;100055.09;5053059;28;20036;-80
2022/03/29 04:01:47;;;;;;;25.65;9.85;;;;;;;7.36;79.63;100053.38;5053462;28;20714;-79
2022/03/29 04:04:12;;;;;;;23.52;10.35;;;;;;;7.28;79.97;100049.00;5053313;28;20049;-79
2022/03/29 04:06:38;;;;;;;21.98;9.30;;;;;;;7.34;79.40;100042.03;5036478;28;20148;-79
2022/03/29 04:09:03;;;;;;;21.48;9.25;;;;;;;7.20;80.11;100039.22;5054101;28;20037;-80
2022/03/29 04:11:28;;;;;;;19.77;9.10;;;;;;;7.32;79.68;100035.03;5054444;28;20051;-79
2022/03/29 04:13:54;;;;;;;20.33;8.33;;;;;;;7.35;79.84;100028.41;5054641;28;20032;-79
2022/03/29 04:16:20;;;;;;;23.13;8.50;;;;;;;7.29;80.30;100030.03;5055644;28;20094;-79
2022/03/29 04:18:45;;;;;;;20.38;9.80;;;;;;;7.16;80.41;100029.09;5058668;28;20040;-79
2022/03/29 04:21:11;;;;;;;25.08;9.48;;;;;;;7.08;80.35;100024.69;5058431;28;20029;-79
2022/03/29 04:23:37;;;;;;;24.52;10.38;;;;;;;7.13;80.57;100019.59;5058832;28;20032;-81
2022/03/29 04:26:03;;;;;;;23.52;9.45;;;;;;;7.11;80.15;100027.00;5058791;28;20076;-79
2022/03/29 04:28:28;;;;;;;25.83;9.50;;;;;;;7.17;80.50;100014.66;5041655;28;20033;-79
2022/03/29 04:30:55;;;;;;;29.27;11.23;;;;;;;7.08;81.36;100018.50;5058217;28;20029;-81
2022/03/29 04:33:21;;;;;;;24.65;9.60;;;;;;;7.02;81.44;100011.22;5058041;28;20043;-79
2022/03/29 04:35:47;;;;;;;23.15;10.02;;;;;;;7.03;81.13;100018.25;5059017;28;20074;-79
2022/03/29 04:38:12;;;;;;;23.90;10.07;;;;;;;6.94;81.57;100009.53;5040338;28;20033;-81
2022/03/29 04:40:37;;;;;;;24.57;10.43;;;;;;;6.89;81.83;100020.81;5058207;28;20021;-80
2022/03/29 04:43:03;;;;;;;24.30;9.13;;;;;;;6.89;81.67;100011.94;5058615;28;20279;-82
2022/03/29 04:45:28;;;;;;;27.63;10.03;;;;;;;6.88;81.87;100011.09;5041082;28;20036;-80
2022/03/29 04:47:54;;;;;;;26.42;9.93;;;;;;;6.88;82.28;100016.47;5040262;28;20451;-80
2022/03/29 04:50:19;;;;;;;28.17;10.82;;;;;;;6.96;81.58;100002.97;5058196;28;20479;-80
2022/03/29 04:52:46;;;;;;;27.00;10.50;;;;;;;6.75;83.02;100005.63;5058833;28;20119;-80
2022/03/29 04:55:15;;;;;;;24.10;10.68;;;;;;;6.82;82.23;100000.31;5058995;28;20375;-80
2022/03/29 04:57:42;;;;;;;26.40;10.98;;;;;;;6.79;82.79;99993.53;5058770;28;20029;-80
2022/03/29 05:00:12;;;;;;;35.75;11.02;;;;;;;6.72;82.97;100005.16;5061748;28;20452;-81
2022/03/29 05:02:39;;;;;;;25.80;11.45;;;;;;;6.71;83.05;99988.28;5062072;28;20380;-80
2022/03/29 05:05:06;;;;;;;28.48;10.18;;;;;;;6.55;83.29;99996.56;5063442;28;20399;-80
2022/03/29 05:07:31;;;;;;;25.48;10.27;;;;;;;6.61;83.73;99985.94;5043674;28;20124;-80
2022/03/29 05:09:57;;;;;;;27.57;11.10;;;;;;;6.75;82.38;99989.56;5061507;28;20064;-80
2022/03/29 05:12:24;;;;;;;28.05;11.32;;;;;;;6.83;82.67;99975.19;5060472;28;20549;-80
2022/03/29 05:14:49;;;;;;;27.15;10.95;;;;;;;6.97;81.52;99985.88;5062044;28;20048;-80
2022/03/29 05:17:14;;;;;;;24.60;10.20;;;;;;;6.88;81.96;99975.47;5071503;28;20383;-80
2022/03/29 05:19:40;;;;;;;23.90;9.50;;;;;;;6.89;82.57;99971.75;5059538;28;20490;-80
2022/03/29 05:22:05;;;;;;;25.13;9.77;;;;;;;6.86;82.10;99972.16;5061992;28;20029;-80
2022/03/29 05:24:31;;;;;;;26.73;10.50;;;;;;;6.86;82.04;99964.94;5041198;28;20040;-80
2022/03/29 05:26:56;;;;;;;26.37;12.20;;;;;;;6.59;82.99;99969.22;5057814;28;20057;-79
2022/03/29 05:29:22;;;;;;;25.80;10.63;;;;;;;6.62;83.83;99968.00;5058153;28;20393;-79
2022/03/29 05:31:48;;;;;;;26.17;10.70;;;;;;;6.75;83.10;99968.13;5058765;28;20040;-80
2022/03/29 05:34:16;;;;;;;28.13;11.90;;;;;;;6.60;83.20;99970.06;5061164;28;20029;-80
2022/03/29 05:36:44;;;;;;;22.67;11.35;;;;;;;6.37;84.09;99970.22;5062138;28;20252;-79
2022/03/29 05:39:15;;;;;;;30.83;11.18;;;;;;;6.44;83.71;99971.13;5062392;28;20037;-80
2022/03/29 05:41:42;;;;;;;23.50;9.93;;;;;;;6.44;84.54;99973.78;5067800;28;20044;-81
2022/03/29 05:44:07;;;;;;;27.23;11.50;;;;;;;6.46;84.74;99968.22;5066129;28;20197;-81
2022/03/29 05:49:16;;;;;;;31.40;10.63;;;;;;;6.44;84.34;99975.66;5069739;28;20076;-80
2022/03/29 05:51:42;;;;;;;30.67;11.63;;;;;;;6.63;83.51;99971.53;5066472;28;20135;-79
2022/03/29 05:54:08;;;;;;;34.75;11.93;;;;;;;6.52;83.96;99978.19;5063233;28;20758;-80
2022/03/29 05:56:33;;;;;;;31.33;12.45;;;;;;;6.56;83.80;99977.63;5058622;28;20033;-80
2022/03/29 05:58:59;;;;;;;36.13;12.07;;;;;;;6.48;84.08;99985.75;5058211;28;20108;-79
2022/03/29 06:01:24;;;;;;;33.90;11.75;;;;;;;6.38;84.69;99979.91;5059836;28;20035;-81
2022/03/29 06:03:49;;;;;;;34.60;13.07;;;;;;;6.30;85.04;99980.00;5040618;28;20044;-80
2022/03/29 06:06:15;;;;;;;34.53;12.27;;;;;;;6.17;85.61;99980.66;5059627;28;20741;-80
2022/03/29 06:08:41;;;;;;;41.23;16.23;;;;;;;6.17;85.35;99985.19;5058531;28;20029;-81
2022/03/29 06:11:07;;;;;;;38.53;13.00;;;;;;;6.17;85.75;99988.69;5041080;28;20358;-81
2022/03/29 06:13:33;;;;;;;34.30;13.07;;;;;;;6.11;86.25;99988.59;5058539;28;20108;-82
2022/03/29 06:15:58;;;;;;;41.13;15.60;;;;;;;6.27;84.93;99983.03;5042700;28;20040;-81
2022/03/29 06:18:24;;;;;;;45.13;14.63;;;;;;;6.04;85.76;99985.03;5059732;28;20037;-82
2022/03/29 06:20:50;;;;;;;44.53;14.30;;;;;;;6.18;85.31;99979.66;5062468;28;20043;-81
2022/03/29 06:23:16;;;;;;;47.47;16.13;;;;;;;6.25;85.18;99979.75;5061036;28;20041;-82
2022/03/29 06:25:42;;;;;;;46.97;15.70;;;;;;;6.15;85.75;99985.38;5044511;28;20037;-82
2022/03/29 06:28:07;;;;;;;38.15;13.95;;;;;;;6.28;85.74;99992.72;5065031;28;20047;-81
2022/03/29 06:30:33;;;;;;;44.15;15.70;;;;;;;6.32;84.84;99996.69;5043823;28;20377;-81
2022/03/29 06:32:59;;;;;;;54.05;16.83;;;;;;;6.12;85.86;99992.94;5059149;28;20025;-81
2022/03/29 06:35:27;;;;;;;51.67;15.75;;;;;;;6.21;85.84;99998.00;5061529;28;20060;-81
2022/03/29 06:37:55;;;;;;;47.38;16.35;;;;;;;6.11;85.55;99999.31;5040671;28;20028;-81
2022/03/29 06:40:21;;;;;;;49.85;14.90;;;;;;;6.11;86.02;99985.94;5039300;28;20037;-82
2022/03/29 06:42:47;;;;;;;48.78;15.23;;;;;;;6.36;85.69;99989.94;5060262;28;20360;-81
2022/03/29 06:45:13;;;;;;;53.75;15.13;;;;;;;6.01;85.96;99996.09;5059468;28;20032;-82
2022/03/29 06:47:39;;;;;;;54.20;16.17;;;;;;;6.00;86.81;99992.59;5041202;28;20071;-81
2022/03/29 06:50:05;;;;;;;45.15;17.50;;;;;;;6.21;86.52;99998.00;5039760;28;20052;-80
2022/03/29 06:52:45;;;;;;;48.80;16.70;;;;;;;6.16;85.93;99991.56;5041515;28;20128;-81
2022/03/29 06:55:13;;;;;;;51.67;17.25;;;;;;;6.43;85.64;99996.22;5062946;28;20032;-81
2022/03/29 06:57:38;;;;;;;49.80;15.48;;;;;;;6.51;84.94;99989.91;5060751;28;20048;-81
2022/03/29 07:00:06;;;;;;;45.17;15.55;;;;;;;6.22;86.11;99994.31;5059445;28;20033;-81
2022/03/29 07:02:31;;;;;;;53.58;15.05;;;;;;;6.13;86.81;99986.56;5060647;28;20110;-81
2022/03/29 07:04:57;;;;;;;46.73;14.97;;;;;;;5.95;87.13;99981.63;5059733;28;20056;-82
2022/03/29 07:07:22;;;;;;;51.05;14.77;;;;;;;5.97;87.17;99992.97;5042780;28;20295;-81
2022/03/29 07:12:34;;;;;;;41.92;14.30;;;;;;;6.05;86.74;99998.22;5060537;28;19919;-81
2022/03/29 07:15:00;;;;;;;53.45;15.98;;;;;;;6.02;86.60;99995.09;5043610;28;20029;-81
2022/03/29 07:17:26;;;;;;;48.13;15.68;;;;;;;6.01;86.95;100001.44;5062814;28;20032;-82
2022/03/29 07:19:53;;;;;;;54.80;15.55;;;;;;;5.98;87.21;99994.63;5062529;28;20048;-82
2022/03/29 07:22:18;;;;;;;45.10;16.23;;;;;;;6.08;86.76;100002.38;5063051;28;20025;-82
2022/03/29 07:24:44;;;;;;;43.93;15.23;;;;;;;5.95;87.27;99999.50;5061305;28;20033;-81
2022/03/29 07:27:10;;;;;;;44.83;15.63;;;;;;;6.09;86.80;100001.38;5059312;28;20329;-81
2022/03/29 07:29:38;;;;;;;49.40;15.45;;;;;;;6.06;86.51;100004.41;5042304;28;20040;-81
2022/03/29 07:32:05;;;;;;;51.15;17.45;;;;;;;6.41;85.53;100003.59;5060908;28;20029;-81
2022/03/29 07:34:35;;;;;;;50.92;16.52;;;;;;;6.57;85.16;100003.38;5061868;28;20143;-81
2022/03/29 07:37:02;;;;;;;43.13;14.93;;;;;;;6.73;84.12;100006.84;5062552;28;20029;-82
2022/03/29 07:39:27;;;;;;;52.60;14.55;;;;;;;6.73;83.86;99998.78;5062793;28;20120;-81
2022/03/29 07:41:54;;;;;;;49.97;14.10;;;;;;;6.48;84.37;100012.53;5061758;28;20033;-80
2022/03/29 07:44:20;;;;;;;37.08;13.90;;;;;;;6.36;84.78;100006.00;5062524;28;20124;-81
2022/03/29 07:46:45;;;;;;;50.40;14.33;;;;;;;6.31;85.67;100004.91;5061577;28;20052;-82
2022/03/29 07:49:10;;;;;;;43.80;13.93;;;;;;;6.19;85.87;100016.09;5059804;28;20029;-81
2022/03/29 07:51:36;;;;;;;42.63;14.93;;;;;;;6.20;86.00;100009.72;5064219;28;20385;-81
2022/03/29 07:54:03;;;;;;;49.27;17.40;;;;;;;6.18;85.55;100013.59;5049070;28;20044;-82
2022/03/29 07:56:29;;;;;;;54.75;16.08;;;;;;;6.45;85.15;100004.88;5067399;28;20024;-81
2022/03/29 07:58:56;;;;;;;43.47;14.60;;;;;;;6.58;85.00;100004.22;5067323;28;20112;-82
2022/03/29 08:01:22;;;;;;;48.50;15.60;;;;;;;6.45;85.31;100004.88;5048908;28;20459;-81
2022/03/29 08:03:49;;;;;;;40.90;13.57;;;;;;;6.25;85.10;100014.53;5066335;28;20044;-81
2022/03/29 08:06:14;;;;;;;42.42;13.68;;;;;;;6.14;86.00;100007.78;5065324;28;20025;-81
2022/03/29 08:08:41;;;;;;;40.20;14.07;;;;;;;6.02;86.48;100005.78;5064838;28;20178;-82
2022/03/29 08:11:08;;;;;;;48.30;14.88;;;;;;;6.27;86.18;100005.28;5064300;28;20043;-80
2022/03/29 08:13:34;;;;;;;43.40;14.02;;;;;;;6.25;86.08;100004.66;5065764;28;20483;-81
2022/03/29 08:16:01;;;;;;;46.83;13.73;;;;;;;6.45;85.67;100006.75;5047819;28;20021;-78
2022/03/29 08:18:28;;;;;;;42.30;13.68;;;;;;;6.17;86.37;100003.91;5065206;28;20063;-79
2022/03/29 08:20:53;;;;;;;46.72;16.08;;;;;;;6.09;86.55;99999.50;5063767;28;20045;-79
2022/03/29 08:23:18;;;;;;;41.03;12.17;;;;;;;6.36;85.52;100005.19;5065364;28;20036;-80
2022/03/29 08:25:44;;;;;;;54.72;16.13;;;;;;;6.31;85.90;99999.56;5063051;28;20259;-80
2022/03/29 08:28:10;;;;;;;51.67;16.05;;;;;;;6.38;85.15;100005.81;5064519;28;20090;-80
2022/03/29 08:30:36;;;;;;;44.78;14.68;;;;;;;6.02;86.54;99997.75;5065086;28;20040;-80
2022/03/29 08:33:02;;;;;;;49.67;17.13;;;;;;;5.98;86.82;100002.66;5065224;28;20340;-82
2022/03/29 08:35:29;;;;;;;48.28;15.27;;;;;;;6.07;86.69;99998.88;5066201;28;20043;-81
2022/03/29 08:37:54;;;;;;;51.65;16.58;;;;;;;5.97;87.88;99994.81;5068916;28;20037;-81
2022/03/29 08:40:27;;;;;;;58.65;18.83;;;;;;;6.12;86.61;99998.28;5068148;28;20044;-81
2022/03/29 08:42:56;;;;;;;49.05;14.40;;;;;;;6.25;86.24;99998.47;5069538;28;20032;-81
2022/03/29 08:45:28;;;;;;;47.08;16.60;;;;;;;6.28;86.51;100003.44;5052034;28;20032;-80
2022/03/29 08:47:56;;;;;;;44.15;15.68;;;;;;;6.39;85.55;100000.28;5068506;28;20028;-81
2022/03/29 08:50:24;;;;;;;42.42;14.55;;;;;;;6.45;85.43;99993.38;5051632;28;20435;-80
2022/03/29 08:52:51;;;;;;;46.92;15.18;;;;;;;6.29;85.49;99986.34;5068311;28;20112;-80
2022/03/29 08:55:17;;;;;;;52.17;16.35;;;;;;;6.37;85.66;99972.06;5053466;28;20032;-80
2022/03/29 08:57:43;;;;;;;41.42;15.02;;;;;;;6.59;85.16;99969.22;5068142;28;20029;-79
2022/03/29 09:00:08;;;;;;;46.75;14.93;;;;;;;6.58;84.70;99972.91;5066235;28;20033;-82
2022/03/29 09:02:36;;;;;;;47.05;14.90;;;;;;;6.58;85.36;99972.09;5064261;28;20462;-81
2022/03/29 09:05:13;;;;;;;52.25;16.73;;;;;;;6.56;84.84;99966.91;5065148;28;20049;-81
2022/03/29 09:07:50;;;;;;;45.55;16.58;;;;;;;6.89;83.46;99958.38;5066384;28;20037;-80
2022/03/29 09:10:17;;;;;;;50.55;16.75;;;;;;;6.59;85.04;99955.84;5064563;28;20041;-80
2022/03/29 09:12:42;;;;;;;57.42;17.17;;;;;;;6.61;84.72;99964.50;5064704;28;20039;-80
2022/03/29 09:15:09;;;;;;;43.58;15.80;;;;;;;6.45;85.89;99955.91;5063845;28;20115;-81
2022/03/29 09:17:39;;;;;;;;;;;;;;;6.52;85.83;99954.94;5063389;28;20116;-81
2022/03/29 09:20:10;;;;;;;45.85;14.63;;;;;;;6.94;83.78;99956.78;5046033;28;19912;-80
2022/03/29 09:22:48;;;;;;;49.05;15.80;;;;;;;6.79;84.10;99949.84;5045927;28;20498;-81
2022/03/29 09:25:17;;;;;;;39.72;13.70;;;;;;;6.78;84.20;99957.06;5061429;28;20037;-82
2022/03/29 09:27:53;;;;;;;47.20;17.67;;;;;;;6.85;84.26;99949.06;5043610;28;20075;-81
2022/03/29 09:30:19;;;;;;;44.30;16.90;;;;;;;6.76;84.34;99948.38;5060958;28;20029;-80
2022/03/29 09:32:52;;;;;;;35.40;13.25;;;;;;;6.78;84.10;99953.53;5043069;28;20055;-81
2022/03/29 09:35:18;;;;;;;36.58;14.25;;;;;;;6.82;84.10;99950.28;5061720;28;20056;-80
2022/03/29 09:37:45;;;;;;;;;;;;;;;6.69;84.85;99960.84;5062412;28;20032;-80
2022/03/29 09:40:11;;;;;;;47.55;14.98;;;;;;;6.57;85.35;99957.03;5061252;28;19955;-80
2022/03/29 09:42:39;;;;;;;43.80;16.50;;;;;;;6.72;84.84;99948.94;5061600;28;20036;-81
2022/03/29 09:45:05;;;;;;;38.25;13.50;;;;;;;7.00;84.28;99957.00;5062458;28;20035;-81
2022/03/29 09:47:30;;;;;;;43.97;16.15;;;;;;;7.03;83.48;99954.78;5063134;28;20033;-81
2022/03/29 09:50:13;;;;;;;49.73;17.13;;;;;;;7.12;83.29;99948.28;5063270;28;20100;-81
2022/03/29 09:52:41;;;;;;;56.92;18.65;;;;;;;6.94;83.88;99950.59;5046047;28;20033;-80
2022/03/29 09:55:23;;;;;;;43.10;16.65;;;;;;;6.96;83.96;99952.06;5063786;28;20025;-82
2022/03/29 09:57:50;;;;;;;51.90;16.40;;;;;;;6.93;84.33;99955.13;5063237;28;20025;-81
2022/03/29 10:00:33;;;;;;;51.72;16.55;;;;;;;6.95;83.91;99947.72;5061796;28;20107;-81
2022/03/29 10:03:01;;;;;;;47.15;16.40;;;;;;;7.30;83.17;99934.41;5046766;28;20033;-80
2022/03/29 10:05:28;;;;;;;39.55;13.27;;;;;;;6.83;84.00;99932.34;5063459;28;20067;-81
2022/03/29 10:10:55;;;;;;;43.50;15.65;;;;;;;6.81;84.21;99929.88;5061494;28;20499;-80
2022/03/29 10:13:23;;;;;;;40.63;15.77;;;;;;;6.99;84.23;99923.25;5060913;28;20112;-82
2022/03/29 10:15:51;;;;;;;52.05;16.17;;;;;;;7.08;83.67;99928.25;5060559;28;20029;-79
2022/03/29 10:18:16;;;;;;;48.75;17.35;;;;;;;7.04;82.99;99926.16;5061118;28;20029;-81
2022/03/29 10:20:42;;;;;;;49.00;16.55;;;;;;;7.20;82.74;99926.69;5040723;28;20040;-81
2022/03/29 10:23:11;;;;;;;41.92;16.73;;;;;;;7.33;82.43;99928.66;5044818;28;20044;-81
2022/03/29 10:25:38;;;;;;;51.95;18.77;;;;;;;7.33;82.29;99917.94;5064076;28;20025;-82
2022/03/29 10:28:05;;;;;;;52.05;16.17;;;;;;;7.31;82.88;99915.44;5062181;28;20147;-81
2022/03/29 10:30:41;;;;;;;49.88;16.02;;;;;;;7.20;82.30;99915.97;5059341;28;20035;-81
2022/03/29 10:33:24;;;;;;;51.63;17.13;;;;;;;7.28;82.29;99906.97;5060104;28;20052;-81
2022/03/29 10:35:58;;;;;;;53.95;17.02;;;;;;;7.24;82.88;99903.84;5045654;28;20041;-81
2022/03/29 10:38:46;;;;;;;52.55;15.57;;;;;;;7.28;82.48;99909.66;5059611;28;20082;-82
2022/03/29 10:41:27;;;;;;;52.70;17.65;;;;;;;7.32;82.63;99910.91;5058799;28;20453;-81
2022/03/29 10:44:14;;;;;;;52.15;17.25;;;;;;;7.50;81.82;99902.38;5059799;28;20033;-82
2022/03/29 10:46:41;;;;;;;49.67;17.08;;;;;;;7.20;82.46;99907.09;5058953;28;20361;-81
2022/03/29 10:49:24;;;;;;;73.68;21.15;;;;;;;7.48;82.13;99899.88;5060012;28;20037;-82
2022/03/29 10:52:05;;;;;;;62.15;17.92;;;;;;;7.50;81.58;99897.00;5058885;28;20025;-80
2022/03/29 10:54:34;;;;;;;60.08;18.83;;;;;;;7.34;82.39;99886.59;5041738;28;20029;-80
2022/03/29 10:57:04;;;;;;;50.95;17.75;;;;;;;7.39;82.44;99892.19;5061345;28;20029;-82
2022/03/29 10:59:31;;;;;;;51.08;18.88;;;;;;;7.61;81.57;99896.44;5027185;28;20071;-82
2022/03/29 11:02:06;;;;;;;55.65;17.88;;;;;;;7.70;81.24;99892.56;5059279;28;20033;-81
2022/03/29 11:04:32;;;;;;;60.97;18.33;;;;;;;7.72;80.85;99893.16;5042479;28;20049;-82
2022/03/29 11:07:06;;;;;;;52.70;16.42;;;;;;;7.64;81.13;99888.00;5059439;28;20040;-80
2022/03/29 11:09:36;;;;;;;46.83;16.73;;;;;;;7.56;81.18;99888.16;5059606;28;20643;-82
2022/03/29 11:15:41;;;;;;;51.45;17.67;;;;;;;7.76;80.83;99866.78;5018570;28;20040;-81
2022/03/29 11:18:29;;;;;;;53.75;17.83;;;;;;;7.81;80.23;99873.22;5019173;28;20042;-81
2022/03/29 11:21:02;;;;;;;46.92;15.63;;;;;;;7.85;79.81;99862.91;5035112;28;20123;-81
2022/03/29 11:23:34;;;;;;;55.20;17.85;;;;;;;8.12;78.82;99861.13;5042256;28;20131;-82
2022/03/29 11:26:10;;;;;;;46.50;15.68;;;;;;;8.04;79.64;99861.34;5059992;28;20028;-82
2022/03/29 11:28:37;;;;;;;46.80;17.63;;;;;;;8.06;79.06;99857.38;5044448;28;20051;-82
2022/03/29 11:31:02;;;;;;;48.03;17.15;;;;;;;8.29;77.80;99851.66;5062645;28;20043;-80
2022/03/29 11:33:33;;;;;;;54.03;17.48;;;;;;;8.08;78.47;99862.56;5059826;28;20060;-81
2022/03/29 11:35:58;;;;;;;55.03;17.10;;;;;;;7.99;78.95;99857.41;5060477;28;20043;-80
2022/03/29 11:38:24;;;;;;;55.58;18.25;;;;;;;8.02;78.73;99854.31;5068947;28;20025;-82